Time;durP1;ratioP1;P1;durP2;ratioP2;P2;SDS_P1;SDS_P2;PMS_P1;PMS_P2;Temp;Humidity;BMP_temperature;BMP_pressure;BME280_temperature;BME280_humidity;BME280_pressure;Samples;Min_cycle;Max_cycle;Signal;HPM_P1;HPM_P2
2023/10/01 02:31:49;;;;;;;1999.90;999.90;;;;;;;;;;5858556;23;20325;-69
2023/10/01 02:34:35;;;;;;;1999.90;999.90;;;;;;;;;;5002577;28;20210;-69
2023/10/01 02:37:29;;;;;;;1999.90;999.90;;;;;;;;;;5010219;28;20215;-67
2023/10/01 02:40:14;;;;;;;1999.90;999.90;;;;;;;;;;5012450;28;20207;-68
2023/10/01 02:43:02;;;;;;;1999.90;999.90;;;;;;;;;;4987886;28;20279;-68
2023/10/01 02:45:50;;;;;;;1999.90;999.90;;;;;;;;;;4988739;28;20703;-67
2023/10/01 02:48:36;;;;;;;1999.90;999.90;;;;;;;;;;4993707;28;20485;-68
2023/10/01 02:51:32;;;;;;;1999.90;999.90;;;;;;;;;;4994040;28;20263;-69
2023/10/01 02:54:18;;;;;;;1999.90;999.90;;;;;;;;;;4993644;28;20707;-68
2023/10/01 02:57:13;;;;;;;1999.90;999.90;;;;;;;;;;4993508;28;20331;-70
2023/10/01 03:03:14;;;;;;;1999.90;999.90;;;;;;;;;;4974360;28;20263;-70
2023/10/01 03:06:08;;;;;;;1999.90;999.90;;;;;;;;;;4987387;28;20207;-69
2023/10/01 03:09:04;;;;;;;1999.90;999.90;;;;;;;;;;4993516;28;20207;-69
2023/10/01 03:11:53;;;;;;;1999.90;999.90;;;;;;;;;;4984787;28;20242;-70
2023/10/01 03:14:37;;;;;;;1999.90;999.90;;;;;;;;;;4993401;28;20327;-69
2023/10/01 03:17:22;;;;;;;1999.90;999.90;;;;;;;;;;4993406;28;20351;-68
2023/10/01 03:21:02;;;;;;;1999.90;999.90;;;;;;;;;;4993395;28;20215;-69
2023/10/01 03:23:24;;;;;;;1999.90;999.90;;;;;;;;;;4992701;28;20637;-69
2023/10/01 03:26:09;;;;;;;1999.90;999.90;;;;;;;;;;4993256;28;20211;-68
2023/10/01 03:32:15;;;;;;;1999.90;999.90;;;;;;;;;;4992907;28;20282;-69
2023/10/01 03:35:08;;;;;;;1999.90;999.90;;;;;;;;;;4993001;28;20222;-69
2023/10/01 03:38:09;;;;;;;1999.90;999.90;;;;;;;;;;4993087;28;20574;-69
2023/10/01 03:41:00;;;;;;;1999.90;999.90;;;;;;;;;;4991932;28;20434;-68
2023/10/01 03:43:45;;;;;;;1999.90;999.90;;;;;;;;;;4990143;28;20212;-69
2023/10/01 03:46:31;;;;;;;1999.90;999.90;;;;;;;;;;4992809;28;20258;-69
2023/10/01 03:49:37;;;;;;;1999.90;999.90;;;;;;;;;;4990162;28;20207;-69
2023/10/01 03:52:22;;;;;;;1999.90;999.90;;;;;;;;;;4987629;28;20294;-68
2023/10/01 03:55:25;;;;;;;1999.90;999.90;;;;;;;;;;4986739;28;20211;-69
2023/10/01 03:58:19;;;;;;;1999.90;999.90;;;;;;;;;;4991255;28;20207;-69
2023/10/01 04:01:21;;;;;;;1999.90;999.90;;;;;;;;;;4986424;28;20207;-68
2023/10/01 04:04:11;;;;;;;1999.90;999.90;;;;;;;;;;4989015;28;20430;-69
2023/10/01 04:06:59;;;;;;;1999.90;999.90;;;;;;;;;;4984872;28;20259;-67
2023/10/01 04:09:47;;;;;;;1999.90;999.90;;;;;;;;;;4987702;28;20235;-68
2023/10/01 04:12:33;;;;;;;1999.90;999.90;;;;;;;;;;4992510;28;20651;-68
2023/10/01 04:15:27;;;;;;;1999.90;999.90;;;;;;;;;;4990832;28;20258;-70
2023/10/01 04:18:21;;;;;;;1999.90;999.90;;;;;;;;;;4990878;28;20605;-69
2023/10/01 04:21:24;;;;;;;1999.90;999.90;;;;;;;;;;4986182;28;20199;-69
2023/10/01 04:24:09;;;;;;;1999.90;999.90;;;;;;;;;;4991495;28;20202;-69
2023/10/01 04:26:54;;;;;;;1999.90;999.90;;;;;;;;;;4982952;28;20210;-69
2023/10/01 04:29:46;;;;;;;1999.90;999.90;;;;;;;;;;4990869;28;20308;-68
2023/10/01 04:32:33;;;;;;;1999.90;999.90;;;;;;;;;;4992117;28;20883;-69
2023/10/01 04:35:18;;;;;;;1999.90;999.90;;;;;;;;;;4990069;28;20311;-68
2023/10/01 04:38:04;;;;;;;1999.90;999.90;;;;;;;;;;4987218;28;20336;-68
2023/10/01 04:40:49;;;;;;;1999.90;999.90;;;;;;;;;;4992185;28;20204;-68
2023/10/01 04:43:35;;;;;;;1999.90;999.90;;;;;;;;;;4990968;28;20231;-69
2023/10/01 04:46:21;;;;;;;1999.90;999.90;;;;;;;;;;4992132;28;20207;-68
2023/10/01 04:49:26;;;;;;;1999.90;999.90;;;;;;;;;;4991363;28;20235;-68
2023/10/01 04:52:11;;;;;;;1999.90;999.90;;;;;;;;;;4972216;28;20407;-68
2023/10/01 04:54:58;;;;;;;1999.90;999.90;;;;;;;;;;4983225;28;20215;-68
2023/10/01 04:57:45;;;;;;;1999.90;999.90;;;;;;;;;;4990492;28;20212;-69
2023/10/01 05:00:30;;;;;;;1999.90;999.90;;;;;;;;;;4991340;28;20254;-69
2023/10/01 05:03:15;;;;;;;1999.90;999.90;;;;;;;;;;4984454;28;20730;-68
2023/10/01 05:06:02;;;;;;;1999.90;999.90;;;;;;;;;;4984618;28;20212;-69
2023/10/01 05:08:49;;;;;;;1999.90;999.90;;;;;;;;;;4991218;28;20219;-69
2023/10/01 05:11:34;;;;;;;1999.90;999.90;;;;;;;;;;4991736;28;20234;-69
2023/10/01 05:14:19;;;;;;;1999.90;999.90;;;;;;;;;;4986592;28;20227;-68
2023/10/01 05:17:07;;;;;;;1999.90;999.90;;;;;;;;;;4973836;28;20439;-70
2023/10/01 05:19:52;;;;;;;1999.90;999.90;;;;;;;;;;4991892;28;20211;-70
2023/10/01 05:22:46;;;;;;;1999.90;999.90;;;;;;;;;;4988979;28;20255;-69
2023/10/01 05:25:31;;;;;;;1999.90;999.90;;;;;;;;;;4990970;28;20206;-69
2023/10/01 05:28:31;;;;;;;1999.90;999.90;;;;;;;;;;4986575;28;20711;-69
2023/10/01 05:31:21;;;;;;;1999.90;999.90;;;;;;;;;;4972481;28;20212;-68
2023/10/01 05:34:11;;;;;;;1999.90;999.90;;;;;;;;;;4985451;28;20227;-69
2023/10/01 05:37:08;;;;;;;1999.90;999.90;;;;;;;;;;4993579;28;20726;-70
2023/10/01 05:39:55;;;;;;;1999.90;999.90;;;;;;;;;;4994401;28;20727;-69
2023/10/01 05:42:41;;;;;;;1999.90;999.90;;;;;;;;;;4994136;28;20231;-69
2023/10/01 05:45:37;;;;;;;1999.90;999.90;;;;;;;;;;4994967;28;20287;-70
2023/10/01 05:48:23;;;;;;;1999.90;999.90;;;;;;;;;;4990623;28;20215;-70
2023/10/01 05:51:08;;;;;;;1999.90;999.90;;;;;;;;;;4995011;28;20207;-68
2023/10/01 05:53:53;;;;;;;1999.90;999.90;;;;;;;;;;4995026;28;20211;-70
2023/10/01 05:56:43;;;;;;;1999.90;999.90;;;;;;;;;;4994601;28;20219;-68
2023/10/01 05:59:28;;;;;;;1999.90;999.90;;;;;;;;;;4994633;28;20693;-68
2023/10/01 06:02:41;;;;;;;1999.90;999.90;;;;;;;;;;4994684;28;20282;-70
2023/10/01 06:05:32;;;;;;;1999.90;999.90;;;;;;;;;;4988509;28;20215;-68
2023/10/01 06:08:24;;;;;;;1999.90;999.90;;;;;;;;;;4994775;28;20346;-69
2023/10/01 06:11:09;;;;;;;1999.90;999.90;;;;;;;;;;4994527;28;20267;-68
2023/10/01 06:13:57;;;;;;;1999.90;999.90;;;;;;;;;;4994636;28;20281;-69
2023/10/01 06:16:43;;;;;;;1999.90;999.90;;;;;;;;;;4993595;28;20215;-69
2023/10/01 06:19:28;;;;;;;1999.90;999.90;;;;;;;;;;4989576;28;20219;-66
2023/10/01 06:22:16;;;;;;;1999.90;999.90;;;;;;;;;;4994020;28;20286;-68
2023/10/01 06:25:01;;;;;;;1999.90;999.90;;;;;;;;;;4994257;28;20214;-69
2023/10/01 06:27:47;;;;;;;1999.90;999.90;;;;;;;;;;4994473;28;20282;-70
2023/10/01 06:30:33;;;;;;;1999.90;999.90;;;;;;;;;;4993205;28;20496;-69
2023/10/01 06:33:29;;;;;;;1999.90;999.90;;;;;;;;;;4987933;28;20230;-69
2023/10/01 06:36:19;;;;;;;1999.90;999.90;;;;;;;;;;4993858;28;20290;-68
2023/10/01 06:39:06;;;;;;;1999.90;999.90;;;;;;;;;;4994326;28;20307;-69
2023/10/01 06:41:52;;;;;;;1999.90;999.90;;;;;;;;;;4993984;28;20252;-69
2023/10/01 06:44:39;;;;;;;1999.90;999.90;;;;;;;;;;4993403;28;20266;-68
2023/10/01 06:47:25;;;;;;;1999.90;999.90;;;;;;;;;;4994043;28;20207;-69
2023/10/01 06:50:14;;;;;;;1999.90;999.90;;;;;;;;;;4986526;28;20627;-68
2023/10/01 06:53:00;;;;;;;1999.90;999.90;;;;;;;;;;4993649;28;20231;-68
2023/10/01 06:55:47;;;;;;;1999.90;999.90;;;;;;;;;;4994009;28;20215;-69
2023/10/01 06:58:32;;;;;;;1999.90;999.90;;;;;;;;;;4992897;28;20291;-68
2023/10/01 07:04:19;;;;;;;1999.90;999.90;;;;;;;;;;4992480;28;20654;-69
2023/10/01 07:07:20;;;;;;;1999.90;999.90;;;;;;;;;;5013081;28;20253;-69
2023/10/01 07:10:10;;;;;;;1999.90;999.90;;;;;;;;;;4994582;28;20215;-69
2023/10/01 07:13:04;;;;;;;1999.90;999.90;;;;;;;;;;4989085;28;20383;-70
2023/10/01 07:15:51;;;;;;;1999.90;999.90;;;;;;;;;;4987183;28;20210;-69
2023/10/01 07:18:37;;;;;;;1999.90;999.90;;;;;;;;;;4987862;28;20230;-68
2023/10/01 07:21:24;;;;;;;1999.90;999.90;;;;;;;;;;4984903;28;20453;-70
2023/10/01 07:24:11;;;;;;;1999.90;999.90;;;;;;;;;;4983659;28;20231;-70
2023/10/01 07:27:03;;;;;;;1999.90;999.90;;;;;;;;;;4992898;28;20215;-70
2023/10/01 07:29:53;;;;;;;1999.90;999.90;;;;;;;;;;4993463;28;20643;-69
2023/10/01 07:32:41;;;;;;;1999.90;999.90;;;;;;;;;;4993208;28;20231;-70
2023/10/01 07:35:28;;;;;;;1999.90;999.90;;;;;;;;;;4992836;28;20731;-71
2023/10/01 07:38:15;;;;;;;1999.90;999.90;;;;;;;;;;4991973;28;20219;-70
2023/10/01 07:41:07;;;;;;;1999.90;999.90;;;;;;;;;;4990864;28;20211;-69
2023/10/01 07:43:55;;;;;;;1999.90;999.90;;;;;;;;;;4989580;28;20426;-70
2023/10/01 07:46:40;;;;;;;1999.90;999.90;;;;;;;;;;4987500;28;20212;-70
2023/10/01 07:49:41;;;;;;;1999.90;999.90;;;;;;;;;;4987803;28;20773;-68
2023/10/01 07:52:26;;;;;;;1999.90;999.90;;;;;;;;;;4987046;28;20731;-70
2023/10/01 07:55:30;;;;;;;1999.90;999.90;;;;;;;;;;4992617;28;20268;-70
2023/10/01 07:58:23;;;;;;;1999.90;999.90;;;;;;;;;;4992585;28;20225;-70
2023/10/01 08:04:50;;;;;;;1999.90;999.90;;;;;;;;;;4992234;28;20304;-69
2023/10/01 08:07:17;;;;;;;1999.90;999.90;;;;;;;;;;4991130;28;20218;-70
2023/10/01 08:10:04;;;;;;;1999.90;999.90;;;;;;;;;;4992624;28;20242;-71
2023/10/01 08:13:06;;;;;;;1999.90;999.90;;;;;;;;;;4989124;28;20734;-69
2023/10/01 08:15:57;;;;;;;1999.90;999.90;;;;;;;;;;4987949;28;20206;-69
2023/10/01 08:18:46;;;;;;;1999.90;999.90;;;;;;;;;;4992468;28;20283;-69
2023/10/01 08:21:37;;;;;;;1999.90;999.90;;;;;;;;;;4991396;28;20704;-69
2023/10/01 08:24:33;;;;;;;1999.90;999.90;;;;;;;;;;4985034;28;20357;-69
2023/10/01 08:27:29;;;;;;;1999.90;999.90;;;;;;;;;;4990191;28;20258;-70
2023/10/01 08:30:19;;;;;;;1999.90;999.90;;;;;;;;;;4991310;28;20207;-70
2023/10/01 08:33:18;;;;;;;1999.90;999.90;;;;;;;;;;4992090;28;20234;-69
2023/10/01 08:36:12;;;;;;;1999.90;999.90;;;;;;;;;;4986939;28;20449;-69
2023/10/01 08:42:08;;;;;;;1999.90;999.90;;;;;;;;;;4992053;28;20223;-69
2023/10/01 08:44:54;;;;;;;1999.90;999.90;;;;;;;;;;4992481;28;20545;-69
2023/10/01 08:47:45;;;;;;;1999.90;999.90;;;;;;;;;;4992381;28;20234;-70
2023/10/01 08:50:36;;;;;;;1999.90;999.90;;;;;;;;;;4992066;28;20711;-70
2023/10/01 08:53:22;;;;;;;1999.90;999.90;;;;;;;;;;4992245;28;20263;-69
2023/10/01 08:56:13;;;;;;;1999.90;999.90;;;;;;;;;;4992087;28;20211;-69
2023/10/01 08:58:59;;;;;;;1999.90;999.90;;;;;;;;;;4991017;28;20668;-69
2023/10/01 09:01:46;;;;;;;1999.90;999.90;;;;;;;;;;4988512;28;20241;-70
2023/10/01 09:04:44;;;;;;;1999.90;999.90;;;;;;;;;;4985243;28;20282;-71
2023/10/01 09:07:40;;;;;;;1999.90;999.90;;;;;;;;;;4992273;28;20214;-70
2023/10/01 09:10:37;;;;;;;1999.90;999.90;;;;;;;;;;4995859;28;20593;-71
2023/10/01 09:13:23;;;;;;;1999.90;999.90;;;;;;;;;;4994599;28;20226;-71
2023/10/01 09:16:11;;;;;;;1999.90;999.90;;;;;;;;;;4994385;28;20699;-71
2023/10/01 09:19:30;;;;;;;1999.90;999.90;;;;;;;;;;4994397;28;20227;-73
2023/10/01 09:22:15;;;;;;;1999.90;999.90;;;;;;;;;;4991933;28;20237;-70
2023/10/01 09:25:14;;;;;;;1999.90;999.90;;;;;;;;;;4994230;28;20219;-72
2023/10/01 09:28:19;;;;;;;1999.90;999.90;;;;;;;;;;4995461;28;20254;-71
2023/10/01 09:31:26;;;;;;;1999.90;999.90;;;;;;;;;;4994137;28;20759;-70
2023/10/01 09:34:29;;;;;;;1999.90;999.90;;;;;;;;;;4993123;28;20278;-72
2023/10/01 09:37:33;;;;;;;1999.90;999.90;;;;;;;;;;4993906;28;20705;-72
2023/10/01 09:43:24;;;;;;;1999.90;999.90;;;;;;;;;;5005197;28;20661;-72
2023/10/01 09:46:10;;;;;;;1999.90;999.90;;;;;;;;;;5014539;28;20215;-72
2023/10/01 09:49:00;;;;;;;1999.90;999.90;;;;;;;;;;4998198;28;20449;-70
2023/10/01 09:51:45;;;;;;;1999.90;999.90;;;;;;;;;;5002081;28;20229;-71
2023/10/01 09:54:41;;;;;;;1999.90;999.90;;;;;;;;;;4997350;28;20581;-71
2023/10/01 09:57:26;;;;;;;1999.90;999.90;;;;;;;;;;4986884;28;20214;-71
2023/10/01 10:00:21;;;;;;;1999.90;999.90;;;;;;;;;;4994685;28;20214;-71
2023/10/01 10:03:11;;;;;;;1999.90;999.90;;;;;;;;;;4990757;28;20244;-71
2023/10/01 10:05:56;;;;;;;1999.90;999.90;;;;;;;;;;4994519;28;20223;-71
2023/10/01 10:08:41;;;;;;;1999.90;999.90;;;;;;;;;;4994655;28;20297;-71
2023/10/01 10:11:29;;;;;;;1999.90;999.90;;;;;;;;;;4986364;28;20241;-70
2023/10/01 10:14:33;;;;;;;1999.90;999.90;;;;;;;;;;4994686;28;20290;-69
2023/10/01 10:17:25;;;;;;;1999.90;999.90;;;;;;;;;;4994477;28;20213;-70
2023/10/01 10:23:21;;;;;;;1999.90;999.90;;;;;;;;;;4984253;28;20281;-71
2023/10/01 10:26:13;;;;;;;1999.90;999.90;;;;;;;;;;4994152;28;20217;-70
2023/10/01 10:29:02;;;;;;;1999.90;999.90;;;;;;;;;;4994099;28;20218;-71
2023/10/01 10:32:09;;;;;;;1999.90;999.90;;;;;;;;;;4988643;28;20238;-71
2023/10/01 10:35:14;;;;;;;1999.90;999.90;;;;;;;;;;4994183;28;20672;-70
2023/10/01 10:37:59;;;;;;;1999.90;999.90;;;;;;;;;;4994183;28;20202;-71
2023/10/01 10:41:05;;;;;;;1999.90;999.90;;;;;;;;;;4994050;28;20211;-70
2023/10/01 10:44:08;;;;;;;1999.90;999.90;;;;;;;;;;4993823;28;20255;-71
2023/10/01 10:47:05;;;;;;;1999.90;999.90;;;;;;;;;;4993584;28;20210;-71
2023/10/01 10:49:49;;;;;;;1999.90;999.90;;;;;;;;;;4993949;28;20211;-71
2023/10/01 10:52:34;;;;;;;1999.90;999.90;;;;;;;;;;4993785;28;20227;-71
2023/10/01 10:55:20;;;;;;;1999.90;999.90;;;;;;;;;;4993477;28;20579;-71
2023/10/01 10:58:11;;;;;;;1999.90;999.90;;;;;;;;;;4993752;28;20219;-71
2023/10/01 11:01:15;;;;;;;1999.90;999.90;;;;;;;;;;4993765;28;20586;-71
2023/10/01 11:04:00;;;;;;;1999.90;999.90;;;;;;;;;;4993452;28;20257;-69
2023/10/01 11:07:01;;;;;;;1999.90;999.90;;;;;;;;;;4993624;28;20218;-69
2023/10/01 11:09:53;;;;;;;1999.90;999.90;;;;;;;;;;4993666;28;20583;-70
2023/10/01 11:12:46;;;;;;;1999.90;999.90;;;;;;;;;;4993388;28;20228;-69
2023/10/01 11:15:38;;;;;;;1999.90;999.90;;;;;;;;;;4992665;28;20226;-69
2023/10/01 11:18:25;;;;;;;1999.90;999.90;;;;;;;;;;4992906;28;20273;-68
2023/10/01 11:21:13;;;;;;;1999.90;999.90;;;;;;;;;;4993451;28;20209;-68
2023/10/01 11:24:00;;;;;;;1999.90;999.90;;;;;;;;;;4992817;28;20262;-69
2023/10/01 11:27:11;;;;;;;1999.90;999.90;;;;;;;;;;4986735;28;20316;-67
2023/10/01 11:29:58;;;;;;;1999.90;999.90;;;;;;;;;;4986800;28;20410;-69
2023/10/01 11:32:57;;;;;;;1999.90;999.90;;;;;;;;;;4992152;28;20362;-69
2023/10/01 11:36:06;;;;;;;1999.90;999.90;;;;;;;;;;4992960;28;20199;-68
2023/10/01 11:38:51;;;;;;;1999.90;999.90;;;;;;;;;;4993095;28;20583;-69
2023/10/01 11:41:41;;;;;;;1999.90;999.90;;;;;;;;;;4992801;28;20238;-69
2023/10/01 11:44:35;;;;;;;1999.90;999.90;;;;;;;;;;4992692;28;20601;-68
2023/10/01 11:47:31;;;;;;;1999.90;999.90;;;;;;;;;;4992107;28;20671;-69
2023/10/01 11:50:18;;;;;;;1999.90;999.90;;;;;;;;;;4992788;28;20207;-69
2023/10/01 11:53:09;;;;;;;1999.90;999.90;;;;;;;;;;4992430;28;20229;-68
2023/10/01 11:55:54;;;;;;;1999.90;999.90;;;;;;;;;;4992273;28;20202;-68
2023/10/01 11:58:40;;;;;;;1999.90;999.90;;;;;;;;;;4992585;28;20596;-67
2023/10/01 12:01:38;;;;;;;1999.90;999.90;;;;;;;;;;4992547;28;20235;-68
2023/10/01 12:07:32;;;;;;;1999.90;999.90;;;;;;;;;;4987779;28;20207;-68
2023/10/01 12:10:31;;;;;;;1999.90;999.90;;;;;;;;;;4991944;28;20199;-68
2023/10/01 12:13:16;;;;;;;1999.90;999.90;;;;;;;;;;4991556;28;20407;-68
2023/10/01 12:16:03;;;;;;;1999.90;999.90;;;;;;;;;;4990676;28;20208;-69
2023/10/01 12:18:48;;;;;;;1999.90;999.90;;;;;;;;;;4984422;28;20413;-68
2023/10/01 12:21:33;;;;;;;1999.90;999.90;;;;;;;;;;4992196;28;20306;-68
2023/10/01 12:24:18;;;;;;;1999.90;999.90;;;;;;;;;;4992210;28;20230;-68
2023/10/01 12:27:07;;;;;;;1999.90;999.90;;;;;;;;;;4991968;28;20211;-67
2023/10/01 12:29:53;;;;;;;1999.90;999.90;;;;;;;;;;4992366;28;20209;-68
2023/10/01 12:32:42;;;;;;;1999.90;999.90;;;;;;;;;;4991609;28;20795;-68
2023/10/01 12:35:30;;;;;;;1999.90;999.90;;;;;;;;;;4991883;28;20204;-68
2023/10/01 12:38:24;;;;;;;1999.90;999.90;;;;;;;;;;4992142;28;20234;-68
2023/10/01 12:41:08;;;;;;;1999.90;999.90;;;;;;;;;;4991861;28;20432;-68
2023/10/01 12:44:14;;;;;;;1999.90;999.90;;;;;;;;;;4993428;28;20594;-68
2023/10/01 12:47:00;;;;;;;1999.90;999.90;;;;;;;;;;4995776;28;20203;-68
2023/10/01 12:49:58;;;;;;;1999.90;999.90;;;;;;;;;;4996075;28;20204;-68
2023/10/01 12:52:43;;;;;;;1999.90;999.90;;;;;;;;;;4995759;28;20235;-68
2023/10/01 12:55:29;;;;;;;1999.90;999.90;;;;;;;;;;4995679;28;20209;-68
2023/10/01 12:58:14;;;;;;;1999.90;999.90;;;;;;;;;;4995991;28;20202;-68
2023/10/01 13:00:59;;;;;;;1999.90;999.90;;;;;;;;;;4996032;28;20251;-68
2023/10/01 13:03:45;;;;;;;1999.90;999.90;;;;;;;;;;4995802;28;20214;-68
2023/10/01 13:06:29;;;;;;;1999.90;999.90;;;;;;;;;;4995503;28;20595;-67
2023/10/01 13:12:15;;;;;;;1999.90;999.90;;;;;;;;;;4991626;28;20783;-67
2023/10/01 13:15:15;;;;;;;1999.90;999.90;;;;;;;;;;4995177;28;20208;-69
2023/10/01 13:18:04;;;;;;;1999.90;999.90;;;;;;;;;;4989955;28;20211;-68
2023/10/01 13:20:59;;;;;;;1999.90;999.90;;;;;;;;;;4988326;28;20211;-68
2023/10/01 13:23:44;;;;;;;1999.90;999.90;;;;;;;;;;4995017;28;20215;-69
2023/10/01 13:26:32;;;;;;;1999.90;999.90;;;;;;;;;;4995228;28;20578;-69
2023/10/01 13:29:28;;;;;;;1999.90;999.90;;;;;;;;;;4995479;28;20215;-68
2023/10/01 13:32:16;;;;;;;1999.90;999.90;;;;;;;;;;4990169;28;20239;-68
2023/10/01 13:35:31;;;;;;;1999.90;999.90;;;;;;;;;;4995004;28;20286;-69
2023/10/01 13:38:26;;;;;;;1999.90;999.90;;;;;;;;;;4995260;28;20788;-68
2023/10/01 14:08:46;;;;;;;1999.90;999.90;;;;;;;;;;4994895;28;20274;-68
2023/10/01 14:11:39;;;;;;;1999.90;999.90;;;;;;;;;;4993429;28;20795;-67
2023/10/01 14:14:33;;;;;;;1999.90;999.90;;;;;;;;;;5003260;28;20213;-67
2023/10/01 14:17:18;;;;;;;1999.90;999.90;;;;;;;;;;5008267;28;20735;-68
2023/10/01 14:20:08;;;;;;;1999.90;999.90;;;;;;;;;;5014130;28;20303;-68
2023/10/01 14:23:00;;;;;;;1999.90;999.90;;;;;;;;;;5014026;28;20235;-68
2023/10/01 14:25:53;;;;;;;1999.90;999.90;;;;;;;;;;5013392;28;20223;-68
2023/10/01 14:28:38;;;;;;;1999.90;999.90;;;;;;;;;;5010027;28;20285;-68
2023/10/01 14:34:22;;;;;;;1999.90;999.90;;;;;;;;;;5009815;28;20283;-68
2023/10/01 14:37:07;;;;;;;1999.90;999.90;;;;;;;;;;5013331;28;20615;-68
2023/10/01 14:39:54;;;;;;;1999.90;999.90;;;;;;;;;;5013728;28;20743;-68
2023/10/01 14:42:38;;;;;;;1999.90;999.90;;;;;;;;;;5013404;28;20234;-68
2023/10/01 14:45:32;;;;;;;1999.90;999.90;;;;;;;;;;5013219;28;20278;-68
2023/10/01 14:48:18;;;;;;;1999.90;999.90;;;;;;;;;;5009975;28;20726;-68
2023/10/01 14:51:03;;;;;;;1999.90;999.90;;;;;;;;;;4998489;28;20279;-69
2023/10/01 14:53:54;;;;;;;1999.90;999.90;;;;;;;;;;5013284;28;20290;-68
2023/10/01 14:56:40;;;;;;;1999.90;999.90;;;;;;;;;;4989803;28;20217;-67
2023/10/01 14:59:29;;;;;;;1999.90;999.90;;;;;;;;;;4993552;28;20301;-68
2023/10/01 15:02:15;;;;;;;1999.90;999.90;;;;;;;;;;4988561;28;20360;-68
2023/10/01 15:05:09;;;;;;;1999.90;999.90;;;;;;;;;;4993085;28;20220;-68
2023/10/01 15:07:54;;;;;;;1999.90;999.90;;;;;;;;;;4992804;28;20397;-68
2023/10/01 15:10:49;;;;;;;1999.90;999.90;;;;;;;;;;4993484;28;20239;-67
2023/10/01 15:13:35;;;;;;;1999.90;999.90;;;;;;;;;;4993499;28;20585;-67
2023/10/01 15:16:20;;;;;;;1999.90;999.90;;;;;;;;;;4993176;28;20237;-68
2023/10/01 15:19:05;;;;;;;1999.90;999.90;;;;;;;;;;4993476;28;20297;-69
2023/10/01 15:21:49;;;;;;;1999.90;999.90;;;;;;;;;;4993180;28;20235;-68
2023/10/01 15:24:35;;;;;;;1999.90;999.90;;;;;;;;;;4993119;28;20731;-68
2023/10/01 15:27:24;;;;;;;1999.90;999.90;;;;;;;;;;4993138;28;20911;-68
2023/10/01 15:30:21;;;;;;;1999.90;999.90;;;;;;;;;;4993292;28;20579;-69
2023/10/01 15:33:15;;;;;;;1999.90;999.90;;;;;;;;;;4992997;28;20791;-69
2023/10/01 15:36:05;;;;;;;1999.90;999.90;;;;;;;;;;4992960;28;20204;-69
2023/10/01 15:38:50;;;;;;;1999.90;999.90;;;;;;;;;;4992928;28;20207;-68
2023/10/01 15:41:41;;;;;;;1999.90;999.90;;;;;;;;;;4989849;28;20330;-69
2023/10/01 15:44:26;;;;;;;1999.90;999.90;;;;;;;;;;4992710;28;20215;-68
2023/10/01 15:47:32;;;;;;;1999.90;999.90;;;;;;;;;;4993059;28;20288;-70
2023/10/01 15:50:18;;;;;;;1999.90;999.90;;;;;;;;;;4993401;28;20219;-68
2023/10/01 15:53:04;;;;;;;1999.90;999.90;;;;;;;;;;4993084;28;20227;-69
2023/10/01 15:56:00;;;;;;;1999.90;999.90;;;;;;;;;;4992383;28;20203;-70
2023/10/01 15:58:49;;;;;;;1999.90;999.90;;;;;;;;;;4993558;28;20747;-68
2023/10/01 16:01:34;;;;;;;1999.90;999.90;;;;;;;;;;4992574;28;20226;-68
2023/10/01 16:04:22;;;;;;;1999.90;999.90;;;;;;;;;;4992629;28;20207;-68
2023/10/01 16:07:07;;;;;;;1999.90;999.90;;;;;;;;;;4992375;28;20210;-67
2023/10/01 16:09:52;;;;;;;1999.90;999.90;;;;;;;;;;4992311;28;20808;-68
2023/10/01 16:12:37;;;;;;;1999.90;999.90;;;;;;;;;;4992457;28;20297;-68
2023/10/01 16:15:22;;;;;;;1999.90;999.90;;;;;;;;;;4991743;28;20203;-67
2023/10/01 16:18:11;;;;;;;1999.90;999.90;;;;;;;;;;4985406;28;20210;-70
2023/10/01 16:21:02;;;;;;;1999.90;999.90;;;;;;;;;;4991960;28;20405;-70
2023/10/01 16:23:48;;;;;;;1999.90;999.90;;;;;;;;;;4992357;28;20208;-70
2023/10/01 16:26:33;;;;;;;1999.90;999.90;;;;;;;;;;4991878;28;20740;-70
2023/10/01 16:29:19;;;;;;;1999.90;999.90;;;;;;;;;;4992453;28;20651;-69
2023/10/01 16:32:05;;;;;;;1999.90;999.90;;;;;;;;;;4990198;28;20356;-70
2023/10/01 16:34:50;;;;;;;1999.90;999.90;;;;;;;;;;4990650;28;20222;-70
2023/10/01 16:37:39;;;;;;;1999.90;999.90;;;;;;;;;;4992323;28;20231;-69
2023/10/01 16:40:24;;;;;;;1999.90;999.90;;;;;;;;;;4984712;28;20214;-70
2023/10/01 16:43:14;;;;;;;1999.90;999.90;;;;;;;;;;4984614;28;20235;-67
2023/10/01 16:46:00;;;;;;;1999.90;999.90;;;;;;;;;;4991779;28;20241;-67
2023/10/01 16:48:46;;;;;;;1999.90;999.90;;;;;;;;;;4991238;28;20216;-70
2023/10/01 16:51:35;;;;;;;1999.90;999.90;;;;;;;;;;4989273;28;20311;-67
2023/10/01 16:54:22;;;;;;;1999.90;999.90;;;;;;;;;;4984357;28;20883;-69
2023/10/01 16:57:11;;;;;;;1999.90;999.90;;;;;;;;;;4983874;28;20203;-69
2023/10/01 16:59:56;;;;;;;1999.90;999.90;;;;;;;;;;4989964;28;20740;-67
2023/10/01 17:02:41;;;;;;;1999.90;999.90;;;;;;;;;;4991996;28;20223;-66
2023/10/01 17:05:26;;;;;;;1999.90;999.90;;;;;;;;;;4990002;28;20302;-67
2023/10/01 17:08:13;;;;;;;1999.90;999.90;;;;;;;;;;4992288;28;20290;-67
2023/10/01 17:11:00;;;;;;;1999.90;999.90;;;;;;;;;;4990889;28;20561;-67
2023/10/01 17:13:46;;;;;;;1999.90;999.90;;;;;;;;;;4990005;28;20267;-67
2023/10/01 17:16:31;;;;;;;1999.90;999.90;;;;;;;;;;4986569;28;20246;-68
2023/10/01 17:19:28;;;;;;;1999.90;999.90;;;;;;;;;;4988347;28;20228;-69
2023/10/01 17:22:16;;;;;;;1999.90;999.90;;;;;;;;;;4991760;28;20326;-67
2023/10/01 17:25:13;;;;;;;1999.90;999.90;;;;;;;;;;4989099;28;20228;-68
2023/10/01 17:28:01;;;;;;;1999.90;999.90;;;;;;;;;;4991983;28;20212;-68
2023/10/01 17:30:46;;;;;;;1999.90;999.90;;;;;;;;;;4992326;28;20211;-67
2023/10/01 17:33:31;;;;;;;1999.90;999.90;;;;;;;;;;4991031;28;21046;-67
2023/10/01 17:36:17;;;;;;;1999.90;999.90;;;;;;;;;;4993735;28;20202;-68
2023/10/01 17:39:19;;;;;;;1999.90;999.90;;;;;;;;;;4995177;28;21599;-67
2023/10/01 17:42:06;;;;;;;1999.90;999.90;;;;;;;;;;4995110;28;20230;-69
2023/10/01 17:44:54;;;;;;;1999.90;999.90;;;;;;;;;;4992892;28;20576;-67
2023/10/01 17:47:44;;;;;;;1999.90;999.90;;;;;;;;;;4995106;28;20733;-68
2023/10/01 17:50:28;;;;;;;1999.90;999.90;;;;;;;;;;4991845;28;20217;-68
2023/10/01 17:53:14;;;;;;;1999.90;999.90;;;;;;;;;;4988834;28;20241;-68
2023/10/01 17:56:00;;;;;;;1999.90;999.90;;;;;;;;;;4992098;28;20348;-68
2023/10/01 17:58:45;;;;;;;1999.90;999.90;;;;;;;;;;4989635;28;20213;-68
2023/10/01 18:01:37;;;;;;;1999.90;999.90;;;;;;;;;;4993632;28;20238;-68
2023/10/01 18:04:23;;;;;;;1999.90;999.90;;;;;;;;;;4987201;28;20209;-68
2023/10/01 18:07:15;;;;;;;1999.90;999.90;;;;;;;;;;4992535;28;20229;-67
2023/10/01 18:10:09;;;;;;;1999.90;999.90;;;;;;;;;;4991445;28;20218;-67
2023/10/01 18:12:57;;;;;;;1999.90;999.90;;;;;;;;;;4990419;28;20249;-68
2023/10/01 18:15:48;;;;;;;1999.90;999.90;;;;;;;;;;4994288;28;20344;-67
2023/10/01 18:18:35;;;;;;;1999.90;999.90;;;;;;;;;;4994019;28;20347;-68
2023/10/01 18:21:21;;;;;;;1999.90;999.90;;;;;;;;;;4984453;28;20710;-68
2023/10/01 18:24:07;;;;;;;1999.90;999.90;;;;;;;;;;4991121;28;20440;-67
2023/10/01 18:26:54;;;;;;;1999.90;999.90;;;;;;;;;;4993916;28;20253;-68
2023/10/01 18:29:39;;;;;;;1999.90;999.90;;;;;;;;;;4994147;28;20221;-67
2023/10/01 18:32:24;;;;;;;1999.90;999.90;;;;;;;;;;4994167;28;20238;-68
2023/10/01 18:35:12;;;;;;;1999.90;999.90;;;;;;;;;;4991338;28;20737;-68
2023/10/01 18:37:57;;;;;;;1999.90;999.90;;;;;;;;;;4993034;28;20247;-68
2023/10/01 18:40:42;;;;;;;1999.90;999.90;;;;;;;;;;4994112;28;20215;-68
2023/10/01 18:43:27;;;;;;;1999.90;999.90;;;;;;;;;;4989244;28;20232;-68
2023/10/01 18:46:13;;;;;;;1999.90;999.90;;;;;;;;;;4991788;28;20448;-68
2023/10/01 18:48:58;;;;;;;1999.90;999.90;;;;;;;;;;4991041;28;20208;-68
2023/10/01 18:51:47;;;;;;;1999.90;999.90;;;;;;;;;;4992578;28;20235;-68
2023/10/01 18:54:32;;;;;;;1999.90;999.90;;;;;;;;;;4989869;28;20225;-67
2023/10/01 18:57:18;;;;;;;1999.90;999.90;;;;;;;;;;4985378;28;20205;-67
2023/10/01 19:00:20;;;;;;;1999.90;999.90;;;;;;;;;;4993109;28;20733;-68
2023/10/01 19:03:06;;;;;;;1999.90;999.90;;;;;;;;;;4990143;28;20236;-68
2023/10/01 19:05:58;;;;;;;1999.90;999.90;;;;;;;;;;4990962;28;20231;-67
2023/10/01 19:08:45;;;;;;;1999.90;999.90;;;;;;;;;;4988030;28;20212;-68
2023/10/01 19:11:30;;;;;;;1999.90;999.90;;;;;;;;;;4993604;28;20239;-68
2023/10/01 19:14:15;;;;;;;1999.90;999.90;;;;;;;;;;4991377;28;20219;-68
2023/10/01 19:17:00;;;;;;;1999.90;999.90;;;;;;;;;;4992000;28;20728;-68